createdAt,value
2022-09-28T00:01:17.170Z,24.60
2022-09-28T00:03:45.754Z,25.13
2022-09-28T00:06:19.822Z,25.98
2022-09-28T00:08:50.652Z,25.83
2022-09-28T00:11:19.685Z,25.80
2022-09-28T00:13:50.752Z,27.02
2022-09-28T00:16:20.493Z,26.65
2022-09-28T00:18:48.476Z,28.23
2022-09-28T00:21:18.822Z,26.23
2022-09-28T00:23:46.427Z,26.58
2022-09-28T00:26:15.566Z,26.85
2022-09-28T00:28:43.292Z,27.70
2022-09-28T00:31:11.054Z,28.60
2022-09-28T00:33:38.771Z,28.83
2022-09-28T00:36:06.737Z,26.75
2022-09-28T00:38:35.014Z,29.67
2022-09-28T00:41:02.756Z,27.77
2022-09-28T00:43:32.628Z,27.73
2022-09-28T00:46:04.030Z,26.38
2022-09-28T00:51:06.549Z,25.65
2022-09-28T00:53:36.936Z,25.80
2022-09-28T00:56:07.314Z,28.88
2022-09-28T00:58:41.113Z,28.60
2022-09-28T01:01:08.903Z,28.08
2022-09-28T01:03:38.611Z,29.63
2022-09-28T01:06:07.904Z,28.27
2022-09-28T01:08:37.307Z,29.33
2022-09-28T01:11:05.250Z,30.23
2022-09-28T01:13:33.665Z,30.33
2022-09-28T01:16:12.134Z,27.42
2022-09-28T01:18:49.700Z,29.67
2022-09-28T01:21:20.164Z,27.95
2022-09-28T01:24:06.120Z,28.00
2022-09-28T01:27:05.466Z,28.30
2022-09-28T01:29:46.215Z,31.23
2022-09-28T01:32:32.463Z,28.90
2022-09-28T01:35:05.696Z,29.38
2022-09-28T01:37:41.632Z,29.10
2022-09-28T01:40:12.384Z,28.38
2022-09-28T01:42:44.903Z,29.17
2022-09-28T01:45:18.382Z,29.98
2022-09-28T01:47:47.786Z,28.55
2022-09-28T01:50:18.468Z,28.63
2022-09-28T01:52:52.374Z,29.33
2022-09-28T01:55:28.197Z,30.67
2022-09-28T01:58:02.926Z,31.02
2022-09-28T02:00:31.282Z,29.25
2022-09-28T02:03:05.354Z,28.48
2022-09-28T02:05:35.608Z,29.23
2022-09-28T02:08:09.048Z,28.92
2022-09-28T02:10:43.361Z,28.13
2022-09-28T02:13:19.983Z,28.23
2022-09-28T02:15:52.472Z,29.08
2022-09-28T02:18:20.408Z,29.38
2022-09-28T02:20:56.529Z,28.70
2022-09-28T02:23:28.526Z,27.80
2022-09-28T02:26:02.189Z,30.50
2022-09-28T02:28:31.334Z,30.02
2022-09-28T02:30:58.939Z,32.60
2022-09-28T02:33:31.832Z,29.67
2022-09-28T02:36:00.845Z,29.80
2022-09-28T02:38:28.558Z,28.05
2022-09-28T02:41:03.887Z,27.85
2022-09-28T02:43:45.162Z,30.40
2022-09-28T02:46:21.926Z,31.48
2022-09-28T02:49:19.887Z,31.67
2022-09-28T02:52:02.053Z,32.83
2022-09-28T02:54:47.599Z,32.10
2022-09-28T02:57:31.871Z,30.67
2022-09-28T03:00:05.734Z,29.08
2022-09-28T03:02:40.140Z,33.25
2022-09-28T03:05:15.547Z,32.50
2022-09-28T03:07:52.248Z,33.95
2022-09-28T03:10:28.374Z,33.05
2022-09-28T03:12:57.334Z,32.92
2022-09-28T03:15:28.486Z,32.53
2022-09-28T03:17:56.920Z,33.03
2022-09-28T03:20:25.176Z,32.95
2022-09-28T03:23:19.851Z,33.53
2022-09-28T03:25:40.772Z,29.38
2022-09-28T03:28:08.333Z,32.72
2022-09-28T03:33:08.625Z,32.58
2022-09-28T03:35:36.351Z,30.65
2022-09-28T03:38:04.240Z,31.30
2022-09-28T03:40:32.149Z,30.85
2022-09-28T03:43:00.692Z,31.15
2022-09-28T03:45:28.530Z,31.65
2022-09-28T03:47:57.511Z,28.80
2022-09-28T03:50:25.870Z,28.92
2022-09-28T03:52:53.998Z,30.05
2022-09-28T03:55:21.702Z,32.28
2022-09-28T03:57:54.082Z,31.63
2022-09-28T04:00:22.113Z,33.55
2022-09-28T04:02:50.405Z,32.72
2022-09-28T04:05:19.580Z,33.38
2022-09-28T04:07:47.158Z,31.95
2022-09-28T04:10:15.100Z,32.30
2022-09-28T04:12:42.800Z,34.03
2022-09-28T04:15:10.854Z,35.25
2022-09-28T04:17:40.194Z,33.92
2022-09-28T04:20:08.919Z,35.00
2022-09-28T04:22:37.976Z,33.90
2022-09-28T04:25:06.515Z,32.13
2022-09-28T04:27:35.704Z,32.40
2022-09-28T04:30:03.962Z,34.63
2022-09-28T04:32:31.771Z,33.13
2022-09-28T04:34:59.464Z,32.85
2022-09-28T04:37:27.192Z,30.15
2022-09-28T04:39:56.740Z,31.52
2022-09-28T04:42:24.525Z,30.63
2022-09-28T04:44:53.666Z,31.58
2022-09-28T04:47:21.221Z,35.08
2022-09-28T04:49:49.137Z,34.17
2022-09-28T04:52:18.482Z,34.58
2022-09-28T04:54:46.281Z,35.50
2022-09-28T04:57:15.731Z,35.95
2022-09-28T04:59:43.281Z,35.05
2022-09-28T05:02:11.422Z,35.42
2022-09-28T05:04:39.384Z,38.05
2022-09-28T05:07:07.205Z,39.70
2022-09-28T05:09:38.433Z,40.38
2022-09-28T05:12:06.690Z,39.80
2022-09-28T05:14:36.024Z,39.70
2022-09-28T05:17:03.871Z,39.70
2022-09-28T05:19:31.839Z,37.80
2022-09-28T05:21:59.472Z,41.58
2022-09-28T05:24:27.676Z,38.00
2022-09-28T05:26:55.286Z,40.00
2022-09-28T05:29:23.454Z,37.58
2022-09-28T05:31:52.687Z,31.90
2022-09-28T05:34:20.351Z,35.38
2022-09-28T05:36:48.077Z,38.20
2022-09-28T05:39:15.681Z,38.90
2022-09-28T05:41:43.476Z,43.50
2022-09-28T05:44:12.184Z,38.97
2022-09-28T05:46:39.757Z,36.42
2022-09-28T05:49:09.218Z,39.30
2022-09-28T05:51:36.986Z,34.85
2022-09-28T05:54:06.120Z,41.67
2022-09-28T05:56:34.257Z,45.05
2022-09-28T05:59:01.996Z,39.78
2022-09-28T06:01:30.569Z,38.53
2022-09-28T06:03:58.716Z,35.53
2022-09-28T06:06:27.665Z,35.65
2022-09-28T06:08:55.276Z,36.78
2022-09-28T06:11:23.189Z,36.67
2022-09-28T06:13:54.312Z,32.90
2022-09-28T06:16:22.082Z,36.72
2022-09-28T06:18:50.699Z,35.33
2022-09-28T06:21:18.256Z,37.53
2022-09-28T06:23:49.316Z,35.60
2022-09-28T06:26:17.378Z,34.33
2022-09-28T06:28:45.023Z,37.38
2022-09-28T06:31:12.974Z,32.95
2022-09-28T06:33:40.837Z,32.40
2022-09-28T06:36:08.865Z,34.28
2022-09-28T06:38:36.982Z,34.97
2022-09-28T06:41:06.461Z,33.10
2022-09-28T06:43:34.581Z,29.60
2022-09-28T06:46:02.702Z,30.15
2022-09-28T06:48:31.042Z,29.08
2022-09-28T06:50:58.626Z,28.23
2022-09-28T06:53:26.751Z,26.67
2022-09-28T06:55:55.363Z,25.30
2022-09-28T06:58:26.362Z,23.33
2022-09-28T07:00:56.656Z,23.17
2022-09-28T07:03:24.368Z,22.65
2022-09-28T07:05:53.406Z,21.35
2022-09-28T07:08:22.756Z,22.27
2022-09-28T07:10:51.242Z,19.13
2022-09-28T07:13:44.396Z,20.02
2022-09-28T07:16:08.211Z,20.40
2022-09-28T07:18:37.733Z,19.45
2022-09-28T07:21:05.632Z,19.77
2022-09-28T07:23:39.153Z,18.02
2022-09-28T07:26:10.004Z,19.25
2022-09-28T07:28:37.943Z,17.98
2022-09-28T07:31:07.137Z,16.90
2022-09-28T07:33:34.784Z,17.67
2022-09-28T07:36:03.624Z,17.33
2022-09-28T07:38:31.271Z,17.73
2022-09-28T07:40:58.935Z,17.33
2022-09-28T07:43:27.381Z,17.02
2022-09-28T07:45:54.999Z,16.85
2022-09-28T07:48:25.476Z,16.55
2022-09-28T07:50:55.276Z,16.65
2022-09-28T07:53:25.047Z,15.50
2022-09-28T07:55:53.526Z,15.60
2022-09-28T07:58:21.456Z,14.93
2022-09-28T08:00:50.124Z,12.80
2022-09-28T08:03:19.425Z,11.50
2022-09-28T08:05:48.618Z,10.18
2022-09-28T08:08:17.152Z,10.30
2022-09-28T08:10:47.208Z,10.48
2022-09-28T08:13:15.486Z,7.85
2022-09-28T08:15:46.167Z,7.85
2022-09-28T08:18:13.964Z,8.93
2022-09-28T08:20:42.216Z,9.90
2022-09-28T08:23:11.405Z,10.45
2022-09-28T08:25:38.996Z,10.60
2022-09-28T08:28:07.153Z,10.15
2022-09-28T08:30:34.945Z,10.07
2022-09-28T08:33:02.962Z,10.73
2022-09-28T08:35:30.722Z,11.88
2022-09-28T08:37:58.339Z,12.13
2022-09-28T08:40:27.399Z,11.80
2022-09-28T08:42:58.212Z,12.05
2022-09-28T08:45:28.249Z,9.88
2022-09-28T08:48:02.160Z,10.50
2022-09-28T08:50:33.120Z,10.93
2022-09-28T08:53:12.463Z,10.43
2022-09-28T08:55:43.773Z,8.50
2022-09-28T09:00:46.997Z,6.40
2022-09-28T09:03:17.879Z,5.88
2022-09-28T09:05:59.666Z,5.75
2022-09-28T09:08:41.489Z,5.90
2022-09-28T09:11:23.254Z,6.03
2022-09-28T09:14:23.406Z,7.50
2022-09-28T09:17:01.370Z,7.35
2022-09-28T09:19:35.980Z,7.43
2022-09-28T09:22:15.723Z,7.22
2022-09-28T09:24:49.481Z,7.32
2022-09-28T09:27:42.509Z,7.55
2022-09-28T09:30:17.733Z,7.22
2022-09-28T09:33:03.834Z,7.07
2022-09-28T09:35:59.815Z,6.90
2022-09-28T09:38:50.229Z,7.20
2022-09-28T09:41:31.323Z,6.10
2022-09-28T09:44:14.954Z,6.70
2022-09-28T09:46:47.155Z,6.90
2022-09-28T09:49:19.428Z,5.97
2022-09-28T09:51:53.004Z,7.15
2022-09-28T09:54:26.171Z,6.50
2022-09-28T09:57:00.019Z,6.63
2022-09-28T09:59:34.155Z,6.50
2022-09-28T10:02:03.473Z,5.70
2022-09-28T10:04:36.813Z,6.82
2022-09-28T10:07:06.825Z,5.60
2022-09-28T10:09:39.676Z,6.22
2022-09-28T10:12:09.720Z,6.65
2022-09-28T10:14:39.336Z,6.72
2022-09-28T10:17:10.757Z,7.10
2022-09-28T10:19:38.689Z,7.43
2022-09-28T10:22:06.584Z,7.47
2022-09-28T10:24:38.776Z,7.90
2022-09-28T10:27:11.426Z,8.63
2022-09-28T10:29:52.156Z,8.43
2022-09-28T10:32:22.708Z,8.70
2022-09-28T10:34:51.821Z,9.03
2022-09-28T10:37:19.920Z,9.23
2022-09-28T10:39:51.719Z,9.60
2022-09-28T10:42:22.246Z,9.25
2022-09-28T10:44:59.511Z,9.65
2022-09-28T10:47:30.155Z,11.88
2022-09-28T10:50:00.627Z,11.63
2022-09-28T10:52:35.297Z,12.32
2022-09-28T10:55:25.905Z,12.52
2022-09-28T10:57:53.891Z,13.52
2022-09-28T11:00:34.810Z,15.18
2022-09-28T11:03:03.171Z,15.77
2022-09-28T11:05:31.524Z,16.13
2022-09-28T11:08:03.730Z,15.93
2022-09-28T11:10:32.791Z,17.60
2022-09-28T11:13:00.964Z,16.25
2022-09-28T11:15:31.643Z,16.50
2022-09-28T11:18:19.209Z,15.43
2022-09-28T11:20:47.062Z,16.95
2022-09-28T11:23:21.764Z,16.30
2022-09-28T11:25:58.769Z,14.85
2022-09-28T11:28:31.642Z,16.52
2022-09-28T11:31:01.144Z,15.82
2022-09-28T11:33:33.508Z,16.10
2022-09-28T11:36:24.341Z,16.90
2022-09-28T11:38:59.789Z,16.47
2022-09-28T11:41:45.970Z,17.30
2022-09-28T11:44:32.557Z,16.80
2022-09-28T11:47:16.644Z,14.95
2022-09-28T11:49:49.669Z,14.75
2022-09-28T11:52:22.846Z,13.52
2022-09-28T11:54:55.681Z,14.02
2022-09-28T11:57:29.855Z,13.55
2022-09-28T12:00:00.583Z,13.88
2022-09-28T12:02:33.972Z,12.77
2022-09-28T12:05:17.111Z,13.45
2022-09-28T12:07:51.577Z,13.50
2022-09-28T12:10:33.157Z,13.82
2022-09-28T12:13:06.083Z,13.38
2022-09-28T12:16:11.626Z,12.25
2022-09-28T12:18:39.013Z,13.75
2022-09-28T12:21:22.473Z,12.85
2022-09-28T12:23:53.687Z,13.48
2022-09-28T12:26:35.914Z,13.43
2022-09-28T12:29:13.288Z,12.43
2022-09-28T12:31:52.305Z,12.52
2022-09-28T12:34:21.016Z,12.18
2022-09-28T12:37:02.957Z,11.55
2022-09-28T12:39:56.968Z,11.38
2022-09-28T12:42:40.988Z,10.65
2022-09-28T12:45:23.694Z,11.35
2022-09-28T12:48:22.892Z,10.48
2022-09-28T12:50:59.277Z,11.48
2022-09-28T12:54:02.896Z,9.80
2022-09-28T12:56:41.324Z,11.25
2022-09-28T12:59:18.853Z,9.27
2022-09-28T13:02:13.783Z,9.35
2022-09-28T13:05:16.839Z,9.23
2022-09-28T13:07:53.809Z,9.75
2022-09-28T13:10:30.225Z,9.48
2022-09-28T13:13:12.171Z,9.05
2022-09-28T13:15:45.255Z,8.80
2022-09-28T13:18:22.594Z,8.38
2022-09-28T13:21:09.376Z,8.25
2022-09-28T13:23:41.580Z,8.43
2022-09-28T13:26:18.570Z,7.90
2022-09-28T13:28:49.005Z,7.90
2022-09-28T13:31:21.873Z,11.32
2022-09-28T13:33:51.311Z,8.65
2022-09-28T13:36:39.140Z,8.38
2022-09-28T13:39:39.784Z,8.02
2022-09-28T13:42:09.915Z,7.90
2022-09-28T13:45:11.244Z,8.80
2022-09-28T13:48:03.543Z,8.05
2022-09-28T13:50:43.766Z,8.20
2022-09-28T13:53:20.541Z,9.45
2022-09-28T13:55:56.736Z,7.97
2022-09-28T13:58:30.615Z,8.13
2022-09-28T14:01:03.597Z,8.73
2022-09-28T14:03:43.998Z,8.45
2022-09-28T14:06:24.106Z,9.38
2022-09-28T14:09:23.410Z,8.88
2022-09-28T14:11:59.643Z,9.18
2022-09-28T14:14:43.865Z,9.75
2022-09-28T14:17:53.115Z,10.32
2022-09-28T14:20:25.057Z,10.60
2022-09-28T14:23:28.168Z,10.98
2022-09-28T14:26:17.618Z,9.75
2022-09-28T14:28:58.984Z,11.25
2022-09-28T14:31:29.483Z,10.68
2022-09-28T14:33:59.448Z,9.82
2022-09-28T14:36:34.558Z,10.00
2022-09-28T14:39:02.541Z,11.18
2022-09-28T14:41:33.570Z,10.73
2022-09-28T14:44:11.938Z,10.80
2022-09-28T14:46:44.996Z,11.13
2022-09-28T14:49:44.324Z,11.88
2022-09-28T14:52:13.478Z,11.05
2022-09-28T14:54:48.424Z,11.82
2022-09-28T14:57:18.905Z,11.68
2022-09-28T14:59:47.029Z,11.30
2022-09-28T15:02:24.196Z,11.80
2022-09-28T15:04:54.379Z,12.80
2022-09-28T15:07:24.700Z,12.57
2022-09-28T15:09:53.562Z,11.75
2022-09-28T15:12:24.941Z,11.30
2022-09-28T15:14:57.575Z,11.35
2022-09-28T15:17:28.774Z,11.53
2022-09-28T15:22:46.434Z,12.25
2022-09-28T15:25:18.555Z,12.45
2022-09-28T15:27:47.384Z,12.48
2022-09-28T15:30:23.050Z,15.32
2022-09-28T15:32:53.651Z,12.38
2022-09-28T15:35:24.038Z,14.10
2022-09-28T15:37:52.442Z,12.65
2022-09-28T15:40:33.822Z,11.70
2022-09-28T15:43:01.639Z,14.48
2022-09-28T15:45:34.775Z,14.95
2022-09-28T15:48:29.338Z,12.88
2022-09-28T15:51:03.290Z,15.40
2022-09-28T15:53:31.212Z,22.95
2022-09-28T15:56:05.142Z,27.75
2022-09-28T15:58:32.852Z,22.15
2022-09-28T16:01:23.333Z,29.55
2022-09-28T16:03:52.732Z,22.63
2022-09-28T16:06:20.623Z,21.42
2022-09-28T16:08:49.317Z,23.85
2022-09-28T16:11:21.385Z,26.15
2022-09-28T16:13:56.482Z,26.25
2022-09-28T16:16:28.082Z,23.20
2022-09-28T16:18:59.512Z,20.83
2022-09-28T16:21:45.400Z,19.83
2022-09-28T16:24:22.689Z,20.75
2022-09-28T16:26:56.736Z,17.70
2022-09-28T16:29:26.721Z,17.50
2022-09-28T16:31:54.762Z,17.15
2022-09-28T16:34:26.904Z,17.67
2022-09-28T16:36:54.771Z,14.90
2022-09-28T16:39:22.363Z,18.23
2022-09-28T16:41:54.036Z,17.92
2022-09-28T16:46:54.502Z,17.52
2022-09-28T16:49:23.880Z,16.58
2022-09-28T16:51:53.110Z,18.08
2022-09-28T16:54:23.241Z,18.20
2022-09-28T16:56:50.985Z,19.33
2022-09-28T16:59:18.636Z,19.73
2022-09-28T17:01:53.032Z,24.23
2022-09-28T17:04:21.208Z,22.13
2022-09-28T17:06:50.479Z,20.98
2022-09-28T17:09:21.029Z,19.73
2022-09-28T17:11:49.676Z,18.90
2022-09-28T17:14:17.785Z,20.40
2022-09-28T17:19:33.826Z,23.08
2022-09-28T17:22:01.633Z,24.98
2022-09-28T17:24:30.808Z,23.98
2022-09-28T17:26:58.484Z,18.48
2022-09-28T17:29:26.702Z,20.65
2022-09-28T17:31:54.428Z,19.33
2022-09-28T17:34:22.250Z,19.73
2022-09-28T17:36:50.067Z,19.67
2022-09-28T17:39:18.921Z,17.48
2022-09-28T17:41:48.349Z,19.10
2022-09-28T17:44:16.499Z,20.92
2022-09-28T17:46:46.236Z,18.88
2022-09-28T17:49:14.980Z,19.08
2022-09-28T17:51:42.679Z,17.48
2022-09-28T17:54:10.289Z,18.58
2022-09-28T17:56:37.916Z,17.95
2022-09-28T17:59:14.258Z,18.52
2022-09-28T18:01:42.149Z,17.95
2022-09-28T18:04:23.029Z,17.50
2022-09-28T18:06:59.682Z,18.80
2022-09-28T18:09:27.825Z,18.63
2022-09-28T18:11:59.697Z,18.85
2022-09-28T18:14:28.977Z,16.27
2022-09-28T18:16:56.669Z,17.45
2022-09-28T18:19:27.462Z,17.20
2022-09-28T18:21:58.937Z,17.80
2022-09-28T18:24:26.711Z,17.45
2022-09-28T18:26:54.537Z,17.75
2022-09-28T18:29:22.514Z,16.90
2022-09-28T18:31:51.731Z,16.58
2022-09-28T18:34:19.640Z,17.65
2022-09-28T18:36:47.685Z,21.55
2022-09-28T18:39:15.297Z,29.42
2022-09-28T18:41:42.966Z,27.60
2022-09-28T18:44:10.763Z,25.60
2022-09-28T18:46:38.401Z,26.50
2022-09-28T18:49:07.643Z,27.52
2022-09-28T18:51:35.435Z,27.50
2022-09-28T18:54:03.712Z,23.73
2022-09-28T18:56:31.751Z,23.48
2022-09-28T18:58:59.746Z,22.13
2022-09-28T19:01:30.846Z,22.00
2022-09-28T19:03:59.906Z,20.40
2022-09-28T19:06:29.446Z,20.55
2022-09-28T19:08:57.523Z,21.75
2022-09-28T19:11:26.115Z,24.88
2022-09-28T19:13:54.215Z,27.73
2022-09-28T19:16:24.419Z,25.30
2022-09-28T19:18:52.658Z,23.88
2022-09-28T19:21:20.667Z,25.45
2022-09-28T19:23:50.166Z,24.65
2022-09-28T19:26:20.226Z,24.98
2022-09-28T19:28:48.634Z,22.67
2022-09-28T19:31:16.752Z,23.10
2022-09-28T19:33:44.982Z,23.08
2022-09-28T19:36:14.793Z,22.67
2022-09-28T19:38:42.521Z,20.88
2022-09-28T19:41:12.983Z,20.77
2022-09-28T19:43:40.528Z,21.33
2022-09-28T19:46:08.346Z,20.13
2022-09-28T19:48:36.307Z,23.35
2022-09-28T19:51:06.049Z,19.08
2022-09-28T19:53:35.348Z,19.80
2022-09-28T19:56:06.580Z,20.52
2022-09-28T19:58:36.776Z,20.73
2022-09-28T20:01:05.737Z,21.08
2022-09-28T20:03:33.419Z,20.33
2022-09-28T20:06:01.990Z,18.45
2022-09-28T20:08:30.020Z,21.65
2022-09-28T20:10:58.781Z,20.15
2022-09-28T20:13:31.033Z,20.42
2022-09-28T20:16:05.582Z,20.17
2022-09-28T20:18:35.002Z,19.90
2022-09-28T20:21:03.301Z,20.75
2022-09-28T20:23:30.956Z,19.15
2022-09-28T20:25:59.089Z,20.35
2022-09-28T20:28:26.681Z,22.73
2022-09-28T20:30:54.583Z,20.75
2022-09-28T20:33:28.766Z,22.90
2022-09-28T20:35:57.090Z,20.63
2022-09-28T20:38:24.773Z,20.48
2022-09-28T20:40:52.427Z,20.17
2022-09-28T20:43:20.189Z,21.27
2022-09-28T20:45:47.753Z,18.65
2022-09-28T20:48:15.339Z,19.70
2022-09-28T20:50:44.784Z,22.60
2022-09-28T20:53:12.452Z,23.13
2022-09-28T20:55:40.057Z,21.52
2022-09-28T20:58:07.709Z,20.92
2022-09-28T21:00:35.272Z,21.55
2022-09-28T21:03:02.928Z,22.25
2022-09-28T21:05:30.859Z,22.80
2022-09-28T21:08:00.014Z,25.42
2022-09-28T21:10:27.724Z,23.67
2022-09-28T21:12:55.559Z,24.65
2022-09-28T21:15:23.384Z,24.30
2022-09-28T21:17:52.536Z,23.10
2022-09-28T21:20:20.514Z,22.98
2022-09-28T21:22:48.317Z,21.95
2022-09-28T21:25:17.335Z,22.38
2022-09-28T21:27:45.315Z,21.80
2022-09-28T21:30:13.460Z,24.23
2022-09-28T21:32:41.397Z,24.45
2022-09-28T21:35:09.859Z,22.67
2022-09-28T21:37:37.470Z,26.08
2022-09-28T21:40:05.837Z,24.48
2022-09-28T21:42:35.072Z,23.98
2022-09-28T21:45:02.684Z,24.30
2022-09-28T21:47:30.585Z,26.63
2022-09-28T21:49:58.265Z,23.42
2022-09-28T21:52:26.332Z,24.50
2022-09-28T21:54:53.917Z,22.90
2022-09-28T21:57:21.652Z,22.67
2022-09-28T21:59:50.776Z,24.00
2022-09-28T22:02:18.453Z,24.15
2022-09-28T22:04:46.240Z,25.23
2022-09-28T22:07:13.817Z,24.70
2022-09-28T22:09:41.778Z,22.50
2022-09-28T22:12:09.652Z,25.48
2022-09-28T22:14:38.363Z,25.67
2022-09-28T22:17:07.374Z,23.77
2022-09-28T22:19:35.254Z,26.38
2022-09-28T22:22:02.837Z,25.73
2022-09-28T22:24:30.499Z,24.33
2022-09-28T22:26:58.175Z,25.15
2022-09-28T22:29:25.855Z,23.25
2022-09-28T22:31:53.412Z,23.98
2022-09-28T22:34:22.451Z,22.25
2022-09-28T22:36:50.188Z,28.00
2022-09-28T22:39:17.773Z,29.20
2022-09-28T22:41:45.625Z,27.60
2022-09-28T22:44:13.239Z,24.92
2022-09-28T22:46:40.938Z,24.40
2022-09-28T22:49:10.670Z,26.25
2022-09-28T22:51:39.834Z,24.25
2022-09-28T22:54:11.663Z,24.77
2022-09-28T22:56:39.439Z,24.70
2022-09-28T22:59:07.013Z,24.85
2022-09-28T23:01:34.954Z,25.85
2022-09-28T23:04:02.608Z,26.08
2022-09-28T23:06:30.556Z,25.88
2022-09-28T23:08:59.983Z,25.42
2022-09-28T23:11:28.770Z,28.00
2022-09-28T23:13:58.034Z,26.10
2022-09-28T23:16:26.622Z,27.48
2022-09-28T23:18:56.194Z,23.48
2022-09-28T23:21:25.347Z,23.10
2022-09-28T23:23:55.387Z,24.67
2022-09-28T23:26:27.264Z,24.80
2022-09-28T23:31:24.490Z,27.10
2022-09-28T23:33:52.485Z,25.45
2022-09-28T23:36:20.857Z,28.27
2022-09-28T23:38:48.616Z,24.50
2022-09-28T23:41:16.147Z,25.98
2022-09-28T23:43:45.991Z,24.70
2022-09-28T23:46:17.280Z,24.15
2022-09-28T23:48:48.413Z,24.05
2022-09-28T23:51:17.283Z,23.58
2022-09-28T23:53:45.079Z,26.00
2022-09-28T23:56:13.128Z,27.67
2022-09-28T23:58:41.102Z,27.75
